<?xml version="1.0" encoding="UTF-8" standalone="no" ?>
<gpx xmlns="http://www.topografix.com/GPX/1/1" xmlns:xsi="http://www.w3.org/2001/XMLSchema-instance" xsi:schemaLocation="http://www.topografix.com/GPX/1/1 http://www.topografix.com/GPX/1/1/gpx.xsd" version="1.1" creator="VisuGPX - https://www.visugpx.com">
  <metadata>
    <name>Thoissey 9Km</name>
  </metadata>
  <trk>
    <name><![CDATA[Thoissey 9 km  2025-20739528]]></name>
    <extensions>
      <line xmlns="http://www.topografix.com/GPX/gpx_style/0/2">
        <color>0000FF</color>
        <width>4</width>
      </line>
    </extensions>
    <trkseg>
      <trkpt lat="46.17162" lon="4.80274">
        <ele>175</ele>
        <time>2025-02-21T20:36:36Z</time>
      </trkpt>
      <trkpt lat="46.17142" lon="4.80203">
        <ele>175</ele>
        <time>2025-02-21T20:35:25Z</time>
      </trkpt>
      <trkpt lat="46.17128" lon="4.8014">
        <ele>174</ele>
        <time>2025-02-21T20:34:24Z</time>
      </trkpt>
      <trkpt lat="46.17118" lon="4.80091">
        <ele>174</ele>
        <time>2025-02-21T20:33:37Z</time>
      </trkpt>
      <trkpt lat="46.17105" lon="4.8005">
        <ele>173</ele>
        <time>2025-02-21T20:32:55Z</time>
      </trkpt>
      <trkpt lat="46.17096" lon="4.8002">
        <ele>172</ele>
        <time>2025-02-21T20:32:25Z</time>
      </trkpt>
      <trkpt lat="46.17086" lon="4.79966">
        <ele>173</ele>
        <time>2025-02-21T20:31:33Z</time>
      </trkpt>
      <trkpt lat="46.17092" lon="4.79942">
        <ele>174</ele>
        <time>2025-02-21T20:31:10Z</time>
      </trkpt>
      <trkpt lat="46.17105" lon="4.79941">
        <ele>174</ele>
        <time>2025-02-21T20:30:52Z</time>
      </trkpt>
      <trkpt lat="46.17134" lon="4.79937">
        <ele>174</ele>
        <time>2025-02-21T20:30:14Z</time>
      </trkpt>
      <trkpt lat="46.17195" lon="4.79936">
        <ele>173</ele>
        <time>2025-02-21T20:28:52Z</time>
      </trkpt>
      <trkpt lat="46.17223" lon="4.79912">
        <ele>174</ele>
        <time>2025-02-21T20:28:09Z</time>
      </trkpt>
      <trkpt lat="46.17267" lon="4.79893">
        <ele>173</ele>
        <time>2025-02-21T20:27:07Z</time>
      </trkpt>
      <trkpt lat="46.1735" lon="4.79814">
        <ele>172</ele>
        <time>2025-02-21T20:24:55Z</time>
      </trkpt>
      <trkpt lat="46.17335" lon="4.79643">
        <ele>172</ele>
        <time>2025-02-21T20:22:16Z</time>
      </trkpt>
      <trkpt lat="46.17328" lon="4.7962">
        <ele>172</ele>
        <time>2025-02-21T20:21:52Z</time>
      </trkpt>
      <trkpt lat="46.17305" lon="4.79572">
        <ele>170</ele>
        <time>2025-02-21T20:20:58Z</time>
      </trkpt>
      <trkpt lat="46.17256" lon="4.79456">
        <ele>169</ele>
        <time>2025-02-21T20:18:53Z</time>
      </trkpt>
      <trkpt lat="46.17245" lon="4.79421">
        <ele>169</ele>
        <time>2025-02-21T20:18:17Z</time>
      </trkpt>
      <trkpt lat="46.17237" lon="4.79385">
        <ele>169</ele>
        <time>2025-02-21T20:17:42Z</time>
      </trkpt>
      <trkpt lat="46.17232" lon="4.79329">
        <ele>168</ele>
        <time>2025-02-21T20:16:50Z</time>
      </trkpt>
      <trkpt lat="46.17229" lon="4.7928">
        <ele>169</ele>
        <time>2025-02-21T20:16:05Z</time>
      </trkpt>
      <trkpt lat="46.17284" lon="4.79264">
        <ele>168</ele>
        <time>2025-02-21T20:14:50Z</time>
      </trkpt>
      <trkpt lat="46.17314" lon="4.79239">
        <ele>167</ele>
        <time>2025-02-21T20:14:04Z</time>
      </trkpt>
      <trkpt lat="46.17338" lon="4.79213">
        <ele>167</ele>
        <time>2025-02-21T20:13:24Z</time>
      </trkpt>
      <trkpt lat="46.17366" lon="4.79174">
        <ele>168</ele>
        <time>2025-02-21T20:12:32Z</time>
      </trkpt>
      <trkpt lat="46.1741" lon="4.79112">
        <ele>168</ele>
        <time>2025-02-21T20:11:10Z</time>
      </trkpt>
      <trkpt lat="46.17447" lon="4.79066">
        <ele>168</ele>
        <time>2025-02-21T20:10:04Z</time>
      </trkpt>
      <trkpt lat="46.17528" lon="4.78943">
        <ele>168</ele>
        <time>2025-02-21T20:07:28Z</time>
      </trkpt>
      <trkpt lat="46.17573" lon="4.78843">
        <ele>168</ele>
        <time>2025-02-21T20:05:37Z</time>
      </trkpt>
      <trkpt lat="46.17697" lon="4.78759">
        <ele>171</ele>
        <time>2025-02-21T20:02:35Z</time>
      </trkpt>
      <trkpt lat="46.17724" lon="4.78732">
        <ele>171</ele>
        <time>2025-02-21T20:01:51Z</time>
      </trkpt>
      <trkpt lat="46.17757" lon="4.78716">
        <ele>170</ele>
        <time>2025-02-21T20:01:04Z</time>
      </trkpt>
      <trkpt lat="46.17791" lon="4.78712">
        <ele>170</ele>
        <time>2025-02-21T20:00:19Z</time>
      </trkpt>
      <trkpt lat="46.18072" lon="4.78708">
        <ele>172</ele>
        <time>2025-02-21T19:54:04Z</time>
      </trkpt>
      <trkpt lat="46.18208" lon="4.78671">
        <ele>171</ele>
        <time>2025-02-21T19:50:59Z</time>
      </trkpt>
      <trkpt lat="46.18233" lon="4.78656">
        <ele>172</ele>
        <time>2025-02-21T19:50:23Z</time>
      </trkpt>
      <trkpt lat="46.18284" lon="4.78199">
        <ele>170</ele>
        <time>2025-02-21T19:43:15Z</time>
      </trkpt>
      <trkpt lat="46.18091" lon="4.78206">
        <ele>170</ele>
        <time>2025-02-21T19:38:58Z</time>
      </trkpt>
      <trkpt lat="46.17979" lon="4.78215">
        <ele>169</ele>
        <time>2025-02-21T19:36:28Z</time>
      </trkpt>
      <trkpt lat="46.17806" lon="4.78222">
        <ele>167</ele>
        <time>2025-02-21T19:32:37Z</time>
      </trkpt>
      <trkpt lat="46.17684" lon="4.78232">
        <ele>169</ele>
        <time>2025-02-21T19:29:54Z</time>
      </trkpt>
      <trkpt lat="46.17552" lon="4.78261">
        <ele>170</ele>
        <time>2025-02-21T19:26:56Z</time>
      </trkpt>
      <trkpt lat="46.17461" lon="4.78278">
        <ele>168</ele>
        <time>2025-02-21T19:24:53Z</time>
      </trkpt>
      <trkpt lat="46.17296" lon="4.78329">
        <ele>169</ele>
        <time>2025-02-21T19:21:08Z</time>
      </trkpt>
      <trkpt lat="46.17137" lon="4.78415">
        <ele>168</ele>
        <time>2025-02-21T19:17:22Z</time>
      </trkpt>
      <trkpt lat="46.16983" lon="4.78508">
        <ele>170</ele>
        <time>2025-02-21T19:13:39Z</time>
      </trkpt>
      <trkpt lat="46.16906" lon="4.78564">
        <ele>171</ele>
        <time>2025-02-21T19:11:44Z</time>
      </trkpt>
      <trkpt lat="46.16865" lon="4.78596">
        <ele>171</ele>
        <time>2025-02-21T19:10:42Z</time>
      </trkpt>
      <trkpt lat="46.1682" lon="4.78619">
        <ele>170</ele>
        <time>2025-02-21T19:09:38Z</time>
      </trkpt>
      <trkpt lat="46.16717" lon="4.78729">
        <ele>169</ele>
        <time>2025-02-21T19:06:47Z</time>
      </trkpt>
      <trkpt lat="46.16633" lon="4.78892">
        <ele>168</ele>
        <time>2025-02-21T19:03:39Z</time>
      </trkpt>
      <trkpt lat="46.1658" lon="4.79001">
        <ele>168</ele>
        <time>2025-02-21T19:01:36Z</time>
      </trkpt>
      <trkpt lat="46.16548" lon="4.79052">
        <ele>170</ele>
        <time>2025-02-21T19:00:32Z</time>
      </trkpt>
      <trkpt lat="46.1652" lon="4.79127">
        <ele>171</ele>
        <time>2025-02-21T18:59:14Z</time>
      </trkpt>
      <trkpt lat="46.16511" lon="4.79163">
        <ele>171</ele>
        <time>2025-02-21T18:58:38Z</time>
      </trkpt>
      <trkpt lat="46.16516" lon="4.79203">
        <ele>170</ele>
        <time>2025-02-21T18:58:01Z</time>
      </trkpt>
      <trkpt lat="46.16495" lon="4.79259">
        <ele>169</ele>
        <time>2025-02-21T18:57:02Z</time>
      </trkpt>
      <trkpt lat="46.16413" lon="4.794">
        <ele>169</ele>
        <time>2025-02-21T18:54:12Z</time>
      </trkpt>
      <trkpt lat="46.16357" lon="4.79516">
        <ele>168</ele>
        <time>2025-02-21T18:52:01Z</time>
      </trkpt>
      <trkpt lat="46.16318" lon="4.79632">
        <ele>168</ele>
        <time>2025-02-21T18:50:02Z</time>
      </trkpt>
      <trkpt lat="46.16283" lon="4.79712">
        <ele>169</ele>
        <time>2025-02-21T18:48:34Z</time>
      </trkpt>
      <trkpt lat="46.16205" lon="4.79857">
        <ele>169</ele>
        <time>2025-02-21T18:45:45Z</time>
      </trkpt>
      <trkpt lat="46.16127" lon="4.79998">
        <ele>168</ele>
        <time>2025-02-21T18:42:58Z</time>
      </trkpt>
      <trkpt lat="46.16063" lon="4.80111">
        <ele>169</ele>
        <time>2025-02-21T18:40:43Z</time>
      </trkpt>
      <trkpt lat="46.16043" lon="4.80119">
        <ele>169</ele>
        <time>2025-02-21T18:40:15Z</time>
      </trkpt>
      <trkpt lat="46.15976" lon="4.80224">
        <ele>168</ele>
        <time>2025-02-21T18:38:03Z</time>
      </trkpt>
      <trkpt lat="46.15939" lon="4.80292">
        <ele>170</ele>
        <time>2025-02-21T18:36:43Z</time>
      </trkpt>
      <trkpt lat="46.15878" lon="4.80361">
        <ele>171</ele>
        <time>2025-02-21T18:35:00Z</time>
      </trkpt>
      <trkpt lat="46.15847" lon="4.80396">
        <ele>171</ele>
        <time>2025-02-21T18:34:08Z</time>
      </trkpt>
      <trkpt lat="46.15814" lon="4.80421">
        <ele>171</ele>
        <time>2025-02-21T18:33:18Z</time>
      </trkpt>
      <trkpt lat="46.15781" lon="4.8044">
        <ele>170</ele>
        <time>2025-02-21T18:32:30Z</time>
      </trkpt>
      <trkpt lat="46.15721" lon="4.80455">
        <ele>169</ele>
        <time>2025-02-21T18:31:09Z</time>
      </trkpt>
      <trkpt lat="46.15566" lon="4.80505">
        <ele>171</ele>
        <time>2025-02-21T18:27:37Z</time>
      </trkpt>
      <trkpt lat="46.15569" lon="4.80667">
        <ele>167</ele>
        <time>2025-02-21T18:25:07Z</time>
      </trkpt>
      <trkpt lat="46.15566" lon="4.80808">
        <ele>168</ele>
        <time>2025-02-21T18:22:57Z</time>
      </trkpt>
      <trkpt lat="46.15565" lon="4.81079">
        <ele>170</ele>
        <time>2025-02-21T18:18:46Z</time>
      </trkpt>
      <trkpt lat="46.15826" lon="4.80892">
        <ele>170</ele>
        <time>2025-02-21T18:12:18Z</time>
      </trkpt>
      <trkpt lat="46.15969" lon="4.80799">
        <ele>168</ele>
        <time>2025-02-21T18:08:48Z</time>
      </trkpt>
      <trkpt lat="46.16006" lon="4.80754">
        <ele>168</ele>
        <time>2025-02-21T18:07:44Z</time>
      </trkpt>
      <trkpt lat="46.16037" lon="4.80737">
        <ele>169</ele>
        <time>2025-02-21T18:07:00Z</time>
      </trkpt>
      <trkpt lat="46.16146" lon="4.80717">
        <ele>169</ele>
        <time>2025-02-21T18:04:33Z</time>
      </trkpt>
      <trkpt lat="46.16203" lon="4.80717">
        <ele>168</ele>
        <time>2025-02-21T18:03:17Z</time>
      </trkpt>
      <trkpt lat="46.1625" lon="4.80702">
        <ele>167</ele>
        <time>2025-02-21T18:02:13Z</time>
      </trkpt>
      <trkpt lat="46.16318" lon="4.80658">
        <ele>169</ele>
        <time>2025-02-21T18:00:33Z</time>
      </trkpt>
      <trkpt lat="46.16433" lon="4.80581">
        <ele>170</ele>
        <time>2025-02-21T17:57:44Z</time>
      </trkpt>
      <trkpt lat="46.16469" lon="4.80568">
        <ele>169</ele>
        <time>2025-02-21T17:56:55Z</time>
      </trkpt>
      <trkpt lat="46.16503" lon="4.80539">
        <ele>169</ele>
        <time>2025-02-21T17:56:02Z</time>
      </trkpt>
      <trkpt lat="46.16581" lon="4.80491">
        <ele>168</ele>
        <time>2025-02-21T17:54:09Z</time>
      </trkpt>
      <trkpt lat="46.16652" lon="4.80447">
        <ele>168</ele>
        <time>2025-02-21T17:52:26Z</time>
      </trkpt>
      <trkpt lat="46.16703" lon="4.80426">
        <ele>169</ele>
        <time>2025-02-21T17:51:15Z</time>
      </trkpt>
      <trkpt lat="46.16756" lon="4.80421">
        <ele>170</ele>
        <time>2025-02-21T17:50:04Z</time>
      </trkpt>
      <trkpt lat="46.16823" lon="4.8044">
        <ele>170</ele>
        <time>2025-02-21T17:48:33Z</time>
      </trkpt>
      <trkpt lat="46.16835" lon="4.80434">
        <ele>170</ele>
        <time>2025-02-21T17:48:16Z</time>
      </trkpt>
      <trkpt lat="46.16856" lon="4.80399">
        <ele>170</ele>
        <time>2025-02-21T17:47:33Z</time>
      </trkpt>
      <trkpt lat="46.16931" lon="4.80404">
        <ele>169</ele>
        <time>2025-02-21T17:45:53Z</time>
      </trkpt>
      <trkpt lat="46.1695" lon="4.80364">
        <ele>171</ele>
        <time>2025-02-21T17:45:08Z</time>
      </trkpt>
      <trkpt lat="46.16977" lon="4.80377">
        <ele>171</ele>
        <time>2025-02-21T17:44:30Z</time>
      </trkpt>
      <trkpt lat="46.16989" lon="4.80312">
        <ele>174</ele>
        <time>2025-02-21T17:43:28Z</time>
      </trkpt>
      <trkpt lat="46.16999" lon="4.80314">
        <ele>174</ele>
        <time>2025-02-21T17:43:14Z</time>
      </trkpt>
      <trkpt lat="46.17003" lon="4.80332">
        <ele>174</ele>
        <time>2025-02-21T17:42:57Z</time>
      </trkpt>
      <trkpt lat="46.17008" lon="4.80343">
        <ele>174</ele>
        <time>2025-02-21T17:42:45Z</time>
      </trkpt>
      <trkpt lat="46.17032" lon="4.80349">
        <ele>175</ele>
        <time>2025-02-21T17:42:12Z</time>
      </trkpt>
      <trkpt lat="46.17054" lon="4.80363">
        <ele>175</ele>
        <time>2025-02-21T17:41:40Z</time>
      </trkpt>
      <trkpt lat="46.17122" lon="4.80393">
        <ele>174</ele>
        <time>2025-02-21T17:40:05Z</time>
      </trkpt>
      <trkpt lat="46.17159" lon="4.80432">
        <ele>173</ele>
        <time>2025-02-21T17:39:04Z</time>
      </trkpt>
      <trkpt lat="46.17175" lon="4.80414">
        <ele>173</ele>
        <time>2025-02-21T17:38:37Z</time>
      </trkpt>
      <trkpt lat="46.17191" lon="4.80406">
        <ele>174</ele>
        <time>2025-02-21T17:38:15Z</time>
      </trkpt>
      <trkpt lat="46.17171" lon="4.80347">
        <ele>173</ele>
        <time>2025-02-21T17:37:14Z</time>
      </trkpt>
      <trkpt lat="46.17161" lon="4.80335">
        <ele>173</ele>
        <time>2025-02-21T17:36:56Z</time>
      </trkpt>
      <trkpt lat="46.1716" lon="4.80275">
        <ele>175</ele>
        <time>2025-02-21T17:36:01Z</time>
      </trkpt>
    </trkseg>
  </trk>
</gpx>